sensor_id;sensor_type;location;lat;lon;timestamp;P1;durP1;ratioP1;P2;durP2;ratioP2
32780;SDS011;19136;47.032;15.502;2023-01-08T00:00:22;45.85;;;19.73;;
32780;SDS011;19136;47.032;15.502;2023-01-08T00:02:48;66.22;;;20.48;;
32780;SDS011;19136;47.032;15.502;2023-01-08T00:05:14;40.35;;;18.42;;
32780;SDS011;19136;47.032;15.502;2023-01-08T00:07:39;50.63;;;19.42;;
32780;SDS011;19136;47.032;15.502;2023-01-08T00:10:04;74.88;;;24.30;;
32780;SDS011;19136;47.032;15.502;2023-01-08T00:12:30;47.38;;;20.23;;
32780;SDS011;19136;47.032;15.502;2023-01-08T00:14:55;42.22;;;20.13;;
32780;SDS011;19136;47.032;15.502;2023-01-08T00:17:20;61.65;;;22.58;;
32780;SDS011;19136;47.032;15.502;2023-01-08T00:19:46;41.17;;;18.67;;
32780;SDS011;19136;47.032;15.502;2023-01-08T00:22:11;46.00;;;19.83;;
32780;SDS011;19136;47.032;15.502;2023-01-08T00:24:37;44.25;;;20.95;;
32780;SDS011;19136;47.032;15.502;2023-01-08T00:27:05;43.92;;;19.50;;
32780;SDS011;19136;47.032;15.502;2023-01-08T00:29:30;38.38;;;19.17;;
32780;SDS011;19136;47.032;15.502;2023-01-08T00:31:56;34.15;;;18.00;;
32780;SDS011;19136;47.032;15.502;2023-01-08T00:34:21;42.42;;;18.25;;
32780;SDS011;19136;47.032;15.502;2023-01-08T00:36:47;37.85;;;18.10;;
32780;SDS011;19136;47.032;15.502;2023-01-08T00:39:12;46.80;;;18.15;;
32780;SDS011;19136;47.032;15.502;2023-01-08T00:41:37;38.50;;;19.52;;
32780;SDS011;19136;47.032;15.502;2023-01-08T00:44:03;35.97;;;18.15;;
32780;SDS011;19136;47.032;15.502;2023-01-08T00:46:28;47.65;;;19.38;;
32780;SDS011;19136;47.032;15.502;2023-01-08T00:48:53;41.75;;;20.02;;
32780;SDS011;19136;47.032;15.502;2023-01-08T00:51:18;34.78;;;18.52;;
32780;SDS011;19136;47.032;15.502;2023-01-08T00:53:44;34.67;;;18.08;;
32780;SDS011;19136;47.032;15.502;2023-01-08T00:56:09;36.47;;;18.30;;
32780;SDS011;19136;47.032;15.502;2023-01-08T00:58:35;40.42;;;19.27;;
32780;SDS011;19136;47.032;15.502;2023-01-08T01:01:00;59.13;;;22.98;;
32780;SDS011;19136;47.032;15.502;2023-01-08T01:03:25;50.28;;;20.35;;
32780;SDS011;19136;47.032;15.502;2023-01-08T01:06:00;35.58;;;18.38;;
32780;SDS011;19136;47.032;15.502;2023-01-08T01:08:26;41.97;;;20.15;;
32780;SDS011;19136;47.032;15.502;2023-01-08T01:10:51;38.75;;;17.63;;
32780;SDS011;19136;47.032;15.502;2023-01-08T01:13:16;35.80;;;17.95;;
32780;SDS011;19136;47.032;15.502;2023-01-08T01:15:42;33.08;;;16.67;;
32780;SDS011;19136;47.032;15.502;2023-01-08T01:18:07;36.20;;;18.27;;
32780;SDS011;19136;47.032;15.502;2023-01-08T01:20:32;33.47;;;18.33;;
32780;SDS011;19136;47.032;15.502;2023-01-08T01:22:57;45.35;;;19.85;;
32780;SDS011;19136;47.032;15.502;2023-01-08T01:25:23;36.55;;;19.85;;
32780;SDS011;19136;47.032;15.502;2023-01-08T01:27:48;39.40;;;18.85;;
32780;SDS011;19136;47.032;15.502;2023-01-08T01:30:14;36.47;;;19.83;;
32780;SDS011;19136;47.032;15.502;2023-01-08T01:32:39;33.67;;;17.55;;
32780;SDS011;19136;47.032;15.502;2023-01-08T01:35:04;45.40;;;20.58;;
32780;SDS011;19136;47.032;15.502;2023-01-08T01:37:30;40.00;;;19.48;;
32780;SDS011;19136;47.032;15.502;2023-01-08T01:39:55;32.72;;;18.08;;
32780;SDS011;19136;47.032;15.502;2023-01-08T01:42:21;31.42;;;16.38;;
32780;SDS011;19136;47.032;15.502;2023-01-08T01:47:39;32.28;;;17.52;;
32780;SDS011;19136;47.032;15.502;2023-01-08T01:50:49;34.20;;;17.38;;
32780;SDS011;19136;47.032;15.502;2023-01-08T01:55:19;36.05;;;18.45;;
32780;SDS011;19136;47.032;15.502;2023-01-08T01:57:48;31.48;;;17.25;;
32780;SDS011;19136;47.032;15.502;2023-01-08T02:00:14;28.35;;;16.02;;
32780;SDS011;19136;47.032;15.502;2023-01-08T02:02:40;30.92;;;16.90;;
32780;SDS011;19136;47.032;15.502;2023-01-08T02:05:05;42.90;;;20.75;;
32780;SDS011;19136;47.032;15.502;2023-01-08T02:07:34;35.42;;;17.50;;
32780;SDS011;19136;47.032;15.502;2023-01-08T02:12:47;33.47;;;16.95;;
32780;SDS011;19136;47.032;15.502;2023-01-08T02:15:20;35.22;;;16.77;;
32780;SDS011;19136;47.032;15.502;2023-01-08T02:27:47;26.33;;;14.52;;
32780;SDS011;19136;47.032;15.502;2023-01-08T02:30:14;32.13;;;17.08;;
32780;SDS011;19136;47.032;15.502;2023-01-08T02:32:40;32.40;;;16.80;;
32780;SDS011;19136;47.032;15.502;2023-01-08T02:35:07;33.90;;;17.63;;
32780;SDS011;19136;47.032;15.502;2023-01-08T02:37:32;31.95;;;16.85;;
32780;SDS011;19136;47.032;15.502;2023-01-08T02:42:38;26.45;;;14.60;;
32780;SDS011;19136;47.032;15.502;2023-01-08T02:47:45;31.20;;;16.10;;
32780;SDS011;19136;47.032;15.502;2023-01-08T02:55:34;28.48;;;16.75;;
32780;SDS011;19136;47.032;15.502;2023-01-08T02:58:00;38.13;;;19.00;;
32780;SDS011;19136;47.032;15.502;2023-01-08T03:00:26;38.63;;;18.30;;
32780;SDS011;19136;47.032;15.502;2023-01-08T03:02:54;29.00;;;16.38;;
32780;SDS011;19136;47.032;15.502;2023-01-08T03:07:50;32.65;;;16.23;;
32780;SDS011;19136;47.032;15.502;2023-01-08T03:10:18;26.77;;;15.88;;
32780;SDS011;19136;47.032;15.502;2023-01-08T03:15:11;30.83;;;15.23;;
32780;SDS011;19136;47.032;15.502;2023-01-08T03:17:42;31.15;;;16.83;;
32780;SDS011;19136;47.032;15.502;2023-01-08T03:20:15;32.10;;;16.38;;
32780;SDS011;19136;47.032;15.502;2023-01-08T03:22:41;34.93;;;17.00;;
32780;SDS011;19136;47.032;15.502;2023-01-08T03:25:08;34.72;;;16.70;;
32780;SDS011;19136;47.032;15.502;2023-01-08T03:27:37;29.33;;;15.45;;
32780;SDS011;19136;47.032;15.502;2023-01-08T03:30:04;27.70;;;14.82;;
32780;SDS011;19136;47.032;15.502;2023-01-08T03:32:30;23.42;;;13.20;;
32780;SDS011;19136;47.032;15.502;2023-01-08T03:34:56;28.95;;;14.80;;
32780;SDS011;19136;47.032;15.502;2023-01-08T03:37:24;36.67;;;17.80;;
32780;SDS011;19136;47.032;15.502;2023-01-08T03:39:53;30.75;;;16.40;;
32780;SDS011;19136;47.032;15.502;2023-01-08T03:42:20;33.92;;;15.70;;
32780;SDS011;19136;47.032;15.502;2023-01-08T03:44:46;29.58;;;14.63;;
32780;SDS011;19136;47.032;15.502;2023-01-08T03:47:11;29.38;;;15.52;;
32780;SDS011;19136;47.032;15.502;2023-01-08T03:49:38;29.70;;;14.93;;
32780;SDS011;19136;47.032;15.502;2023-01-08T03:52:04;31.50;;;15.07;;
32780;SDS011;19136;47.032;15.502;2023-01-08T03:54:30;27.20;;;13.65;;
32780;SDS011;19136;47.032;15.502;2023-01-08T03:56:56;27.90;;;14.20;;
32780;SDS011;19136;47.032;15.502;2023-01-08T03:59:21;30.67;;;14.55;;
32780;SDS011;19136;47.032;15.502;2023-01-08T04:01:47;27.77;;;13.98;;
32780;SDS011;19136;47.032;15.502;2023-01-08T04:04:12;28.42;;;14.82;;
32780;SDS011;19136;47.032;15.502;2023-01-08T04:06:37;28.80;;;15.18;;
32780;SDS011;19136;47.032;15.502;2023-01-08T04:09:02;25.33;;;13.90;;
32780;SDS011;19136;47.032;15.502;2023-01-08T04:11:28;27.58;;;14.02;;
32780;SDS011;19136;47.032;15.502;2023-01-08T04:13:54;26.48;;;14.23;;
32780;SDS011;19136;47.032;15.502;2023-01-08T04:16:19;28.10;;;14.75;;
32780;SDS011;19136;47.032;15.502;2023-01-08T04:18:45;27.25;;;14.70;;
32780;SDS011;19136;47.032;15.502;2023-01-08T04:21:10;26.80;;;14.68;;
32780;SDS011;19136;47.032;15.502;2023-01-08T04:23:35;39.70;;;19.38;;
32780;SDS011;19136;47.032;15.502;2023-01-08T04:26:04;32.78;;;16.40;;
32780;SDS011;19136;47.032;15.502;2023-01-08T04:28:30;27.60;;;15.40;;
32780;SDS011;19136;47.032;15.502;2023-01-08T04:30:55;29.73;;;14.45;;
32780;SDS011;19136;47.032;15.502;2023-01-08T04:33:20;27.20;;;14.23;;
32780;SDS011;19136;47.032;15.502;2023-01-08T04:35:46;30.77;;;15.23;;
32780;SDS011;19136;47.032;15.502;2023-01-08T04:38:11;31.98;;;17.20;;
32780;SDS011;19136;47.032;15.502;2023-01-08T04:40:37;36.25;;;17.92;;
32780;SDS011;19136;47.032;15.502;2023-01-08T04:43:02;32.70;;;16.80;;
32780;SDS011;19136;47.032;15.502;2023-01-08T04:45:27;35.75;;;15.38;;
32780;SDS011;19136;47.032;15.502;2023-01-08T04:47:56;24.88;;;14.02;;
32780;SDS011;19136;47.032;15.502;2023-01-08T04:50:22;29.13;;;15.40;;
32780;SDS011;19136;47.032;15.502;2023-01-08T04:52:47;27.35;;;14.88;;
32780;SDS011;19136;47.032;15.502;2023-01-08T04:55:12;25.00;;;14.07;;
32780;SDS011;19136;47.032;15.502;2023-01-08T04:57:38;24.55;;;13.85;;
32780;SDS011;19136;47.032;15.502;2023-01-08T05:00:03;28.02;;;14.93;;
32780;SDS011;19136;47.032;15.502;2023-01-08T05:02:29;26.50;;;14.32;;
32780;SDS011;19136;47.032;15.502;2023-01-08T05:04:54;26.52;;;14.27;;
32780;SDS011;19136;47.032;15.502;2023-01-08T05:07:20;26.98;;;13.90;;
32780;SDS011;19136;47.032;15.502;2023-01-08T05:09:45;24.08;;;12.93;;
32780;SDS011;19136;47.032;15.502;2023-01-08T05:12:10;27.13;;;13.23;;
32780;SDS011;19136;47.032;15.502;2023-01-08T05:14:36;27.25;;;13.40;;
32780;SDS011;19136;47.032;15.502;2023-01-08T05:17:01;29.48;;;14.43;;
32780;SDS011;19136;47.032;15.502;2023-01-08T05:19:26;21.75;;;12.48;;
32780;SDS011;19136;47.032;15.502;2023-01-08T05:21:51;23.33;;;12.77;;
32780;SDS011;19136;47.032;15.502;2023-01-08T05:24:17;25.63;;;12.40;;
32780;SDS011;19136;47.032;15.502;2023-01-08T05:26:42;26.40;;;13.13;;
32780;SDS011;19136;47.032;15.502;2023-01-08T05:29:08;26.88;;;13.80;;
32780;SDS011;19136;47.032;15.502;2023-01-08T05:31:34;24.52;;;13.10;;
32780;SDS011;19136;47.032;15.502;2023-01-08T05:33:59;28.08;;;13.73;;
32780;SDS011;19136;47.032;15.502;2023-01-08T05:36:24;26.27;;;13.27;;
32780;SDS011;19136;47.032;15.502;2023-01-08T05:38:50;29.75;;;13.88;;
32780;SDS011;19136;47.032;15.502;2023-01-08T05:41:15;25.52;;;12.98;;
32780;SDS011;19136;47.032;15.502;2023-01-08T05:43:41;23.67;;;12.07;;
32780;SDS011;19136;47.032;15.502;2023-01-08T05:46:06;24.15;;;12.82;;
32780;SDS011;19136;47.032;15.502;2023-01-08T05:48:32;24.15;;;12.65;;
32780;SDS011;19136;47.032;15.502;2023-01-08T05:50:58;29.60;;;13.50;;
32780;SDS011;19136;47.032;15.502;2023-01-08T05:53:23;24.65;;;12.98;;
32780;SDS011;19136;47.032;15.502;2023-01-08T05:55:49;26.80;;;13.05;;
32780;SDS011;19136;47.032;15.502;2023-01-08T05:58:14;28.35;;;14.57;;
32780;SDS011;19136;47.032;15.502;2023-01-08T06:00:43;25.60;;;13.77;;
32780;SDS011;19136;47.032;15.502;2023-01-08T06:03:08;24.98;;;13.55;;
32780;SDS011;19136;47.032;15.502;2023-01-08T06:05:33;23.17;;;11.77;;
32780;SDS011;19136;47.032;15.502;2023-01-08T06:07:59;22.40;;;12.77;;
32780;SDS011;19136;47.032;15.502;2023-01-08T06:10:24;23.83;;;12.38;;
32780;SDS011;19136;47.032;15.502;2023-01-08T06:12:50;26.73;;;13.23;;
32780;SDS011;19136;47.032;15.502;2023-01-08T06:15:15;28.17;;;13.40;;
32780;SDS011;19136;47.032;15.502;2023-01-08T06:17:40;24.73;;;12.02;;
32780;SDS011;19136;47.032;15.502;2023-01-08T06:20:06;20.85;;;12.00;;
32780;SDS011;19136;47.032;15.502;2023-01-08T06:22:32;24.33;;;11.65;;
32780;SDS011;19136;47.032;15.502;2023-01-08T06:24:57;25.33;;;11.85;;
32780;SDS011;19136;47.032;15.502;2023-01-08T06:27:22;23.95;;;12.30;;
32780;SDS011;19136;47.032;15.502;2023-01-08T06:29:48;25.08;;;11.82;;
32780;SDS011;19136;47.032;15.502;2023-01-08T06:32:13;28.38;;;13.05;;
32780;SDS011;19136;47.032;15.502;2023-01-08T06:34:38;28.00;;;13.88;;
32780;SDS011;19136;47.032;15.502;2023-01-08T06:37:04;30.05;;;14.95;;
32780;SDS011;19136;47.032;15.502;2023-01-08T06:39:29;28.50;;;13.85;;
32780;SDS011;19136;47.032;15.502;2023-01-08T06:41:54;28.35;;;14.73;;
32780;SDS011;19136;47.032;15.502;2023-01-08T06:44:20;26.02;;;13.25;;
32780;SDS011;19136;47.032;15.502;2023-01-08T06:46:45;25.38;;;12.80;;
32780;SDS011;19136;47.032;15.502;2023-01-08T06:49:11;21.98;;;12.02;;
32780;SDS011;19136;47.032;15.502;2023-01-08T06:51:37;23.75;;;12.57;;
32780;SDS011;19136;47.032;15.502;2023-01-08T06:54:03;22.83;;;12.13;;
32780;SDS011;19136;47.032;15.502;2023-01-08T06:56:28;21.58;;;11.70;;
32780;SDS011;19136;47.032;15.502;2023-01-08T06:58:53;29.00;;;13.40;;
32780;SDS011;19136;47.032;15.502;2023-01-08T07:01:19;29.52;;;13.30;;
32780;SDS011;19136;47.032;15.502;2023-01-08T07:03:44;28.38;;;13.82;;
32780;SDS011;19136;47.032;15.502;2023-01-08T07:06:17;26.75;;;13.57;;
32780;SDS011;19136;47.032;15.502;2023-01-08T07:08:43;22.70;;;12.30;;
32780;SDS011;19136;47.032;15.502;2023-01-08T07:11:09;21.77;;;11.68;;
32780;SDS011;19136;47.032;15.502;2023-01-08T07:13:34;21.83;;;12.45;;
32780;SDS011;19136;47.032;15.502;2023-01-08T07:16:06;23.85;;;13.00;;
32780;SDS011;19136;47.032;15.502;2023-01-08T07:18:32;28.37;;;13.73;;
32780;SDS011;19136;47.032;15.502;2023-01-08T07:20:57;28.13;;;12.52;;
32780;SDS011;19136;47.032;15.502;2023-01-08T07:23:22;24.75;;;12.77;;
32780;SDS011;19136;47.032;15.502;2023-01-08T07:25:48;26.15;;;12.30;;
32780;SDS011;19136;47.032;15.502;2023-01-08T07:28:13;27.52;;;13.55;;
32780;SDS011;19136;47.032;15.502;2023-01-08T07:30:39;26.33;;;14.20;;
32780;SDS011;19136;47.032;15.502;2023-01-08T07:33:04;26.23;;;13.65;;
32780;SDS011;19136;47.032;15.502;2023-01-08T07:35:29;26.75;;;13.63;;
32780;SDS011;19136;47.032;15.502;2023-01-08T07:37:55;30.48;;;13.45;;
32780;SDS011;19136;47.032;15.502;2023-01-08T07:40:21;28.67;;;13.43;;
32780;SDS011;19136;47.032;15.502;2023-01-08T07:42:46;25.33;;;12.52;;
32780;SDS011;19136;47.032;15.502;2023-01-08T07:45:11;23.20;;;11.50;;
32780;SDS011;19136;47.032;15.502;2023-01-08T07:47:37;25.55;;;13.40;;
32780;SDS011;19136;47.032;15.502;2023-01-08T07:50:02;24.63;;;13.30;;
32780;SDS011;19136;47.032;15.502;2023-01-08T07:52:28;25.88;;;12.80;;
32780;SDS011;19136;47.032;15.502;2023-01-08T07:54:53;25.73;;;12.45;;
32780;SDS011;19136;47.032;15.502;2023-01-08T07:57:18;27.15;;;13.00;;
32780;SDS011;19136;47.032;15.502;2023-01-08T07:59:44;22.23;;;12.40;;
32780;SDS011;19136;47.032;15.502;2023-01-08T08:02:09;23.55;;;13.05;;
32780;SDS011;19136;47.032;15.502;2023-01-08T08:04:35;24.55;;;12.25;;
32780;SDS011;19136;47.032;15.502;2023-01-08T08:07:00;23.77;;;11.88;;
32780;SDS011;19136;47.032;15.502;2023-01-08T08:09:25;26.10;;;11.95;;
32780;SDS011;19136;47.032;15.502;2023-01-08T08:11:51;20.42;;;11.85;;
32780;SDS011;19136;47.032;15.502;2023-01-08T08:14:16;27.38;;;14.90;;
32780;SDS011;19136;47.032;15.502;2023-01-08T08:16:41;23.67;;;14.00;;
32780;SDS011;19136;47.032;15.502;2023-01-08T08:19:07;33.92;;;16.27;;
32780;SDS011;19136;47.032;15.502;2023-01-08T08:21:32;22.92;;;13.70;;
32780;SDS011;19136;47.032;15.502;2023-01-08T08:23:57;24.33;;;12.15;;
32780;SDS011;19136;47.032;15.502;2023-01-08T08:26:23;21.35;;;11.90;;
32780;SDS011;19136;47.032;15.502;2023-01-08T08:28:48;17.45;;;11.10;;
32780;SDS011;19136;47.032;15.502;2023-01-08T08:31:14;19.98;;;11.43;;
32780;SDS011;19136;47.032;15.502;2023-01-08T08:33:39;19.77;;;11.85;;
32780;SDS011;19136;47.032;15.502;2023-01-08T08:36:05;20.02;;;10.60;;
32780;SDS011;19136;47.032;15.502;2023-01-08T08:38:30;15.40;;;9.45;;
32780;SDS011;19136;47.032;15.502;2023-01-08T08:40:55;21.02;;;9.32;;
32780;SDS011;19136;47.032;15.502;2023-01-08T08:43:21;17.23;;;9.20;;
32780;SDS011;19136;47.032;15.502;2023-01-08T08:45:49;22.25;;;10.35;;
32780;SDS011;19136;47.032;15.502;2023-01-08T08:48:14;18.33;;;9.98;;
32780;SDS011;19136;47.032;15.502;2023-01-08T08:50:41;23.20;;;10.43;;
32780;SDS011;19136;47.032;15.502;2023-01-08T08:53:06;18.00;;;9.25;;
32780;SDS011;19136;47.032;15.502;2023-01-08T08:55:32;21.40;;;10.45;;
32780;SDS011;19136;47.032;15.502;2023-01-08T08:58:01;19.05;;;9.23;;
32780;SDS011;19136;47.032;15.502;2023-01-08T09:00:26;19.33;;;9.32;;
32780;SDS011;19136;47.032;15.502;2023-01-08T09:02:51;19.02;;;9.80;;
32780;SDS011;19136;47.032;15.502;2023-01-08T09:05:17;18.77;;;10.63;;
32780;SDS011;19136;47.032;15.502;2023-01-08T09:07:42;18.17;;;9.60;;
32780;SDS011;19136;47.032;15.502;2023-01-08T09:10:07;19.90;;;9.48;;
32780;SDS011;19136;47.032;15.502;2023-01-08T09:12:33;16.73;;;8.25;;
32780;SDS011;19136;47.032;15.502;2023-01-08T09:14:58;18.02;;;8.88;;
32780;SDS011;19136;47.032;15.502;2023-01-08T09:17:23;17.50;;;9.57;;
32780;SDS011;19136;47.032;15.502;2023-01-08T09:19:52;17.60;;;9.98;;
32780;SDS011;19136;47.032;15.502;2023-01-08T09:22:18;22.80;;;10.77;;
32780;SDS011;19136;47.032;15.502;2023-01-08T09:24:43;21.55;;;10.80;;
32780;SDS011;19136;47.032;15.502;2023-01-08T09:27:08;23.80;;;13.23;;
32780;SDS011;19136;47.032;15.502;2023-01-08T09:29:34;21.95;;;13.27;;
32780;SDS011;19136;47.032;15.502;2023-01-08T09:31:59;23.83;;;14.20;;
32780;SDS011;19136;47.032;15.502;2023-01-08T09:34:29;27.70;;;13.93;;
32780;SDS011;19136;47.032;15.502;2023-01-08T09:36:55;22.88;;;13.90;;
32780;SDS011;19136;47.032;15.502;2023-01-08T09:39:21;24.67;;;15.18;;
32780;SDS011;19136;47.032;15.502;2023-01-08T09:41:46;29.95;;;17.33;;
32780;SDS011;19136;47.032;15.502;2023-01-08T09:44:13;27.70;;;16.13;;
32780;SDS011;19136;47.032;15.502;2023-01-08T09:46:40;29.17;;;17.48;;
32780;SDS011;19136;47.032;15.502;2023-01-08T09:49:06;25.15;;;15.27;;
32780;SDS011;19136;47.032;15.502;2023-01-08T09:51:36;27.13;;;16.75;;
32780;SDS011;19136;47.032;15.502;2023-01-08T09:54:05;25.67;;;15.52;;
32780;SDS011;19136;47.032;15.502;2023-01-08T09:56:34;26.95;;;14.75;;
32780;SDS011;19136;47.032;15.502;2023-01-08T09:59:01;26.55;;;13.65;;
32780;SDS011;19136;47.032;15.502;2023-01-08T10:01:28;22.95;;;13.30;;
32780;SDS011;19136;47.032;15.502;2023-01-08T10:03:59;21.35;;;12.82;;
32780;SDS011;19136;47.032;15.502;2023-01-08T10:06:27;20.75;;;13.18;;
32780;SDS011;19136;47.032;15.502;2023-01-08T10:08:52;21.50;;;12.98;;
32780;SDS011;19136;47.032;15.502;2023-01-08T10:11:18;18.95;;;11.68;;
32780;SDS011;19136;47.032;15.502;2023-01-08T10:13:48;19.58;;;12.15;;
32780;SDS011;19136;47.032;15.502;2023-01-08T10:16:23;20.75;;;12.23;;
32780;SDS011;19136;47.032;15.502;2023-01-08T10:18:49;17.63;;;10.65;;
32780;SDS011;19136;47.032;15.502;2023-01-08T10:21:14;16.77;;;11.40;;
32780;SDS011;19136;47.032;15.502;2023-01-08T10:23:52;18.40;;;10.98;;
32780;SDS011;19136;47.032;15.502;2023-01-08T10:26:28;18.85;;;11.13;;
32780;SDS011;19136;47.032;15.502;2023-01-08T10:31:46;18.58;;;11.27;;
32780;SDS011;19136;47.032;15.502;2023-01-08T10:34:16;16.23;;;10.32;;
32780;SDS011;19136;47.032;15.502;2023-01-08T10:36:43;19.58;;;11.10;;
32780;SDS011;19136;47.032;15.502;2023-01-08T10:39:12;17.10;;;9.93;;
32780;SDS011;19136;47.032;15.502;2023-01-08T10:41:41;16.85;;;9.93;;
32780;SDS011;19136;47.032;15.502;2023-01-08T10:44:06;16.40;;;9.52;;
32780;SDS011;19136;47.032;15.502;2023-01-08T10:46:45;18.37;;;10.70;;
32780;SDS011;19136;47.032;15.502;2023-01-08T10:49:28;18.25;;;10.68;;
32780;SDS011;19136;47.032;15.502;2023-01-08T10:51:56;17.50;;;11.57;;
32780;SDS011;19136;47.032;15.502;2023-01-08T10:54:32;16.48;;;10.57;;
32780;SDS011;19136;47.032;15.502;2023-01-08T10:56:58;16.35;;;9.98;;
32780;SDS011;19136;47.032;15.502;2023-01-08T10:59:23;15.23;;;9.52;;
32780;SDS011;19136;47.032;15.502;2023-01-08T11:01:50;18.73;;;11.18;;
32780;SDS011;19136;47.032;15.502;2023-01-08T11:04:22;15.05;;;9.68;;
32780;SDS011;19136;47.032;15.502;2023-01-08T11:06:47;17.50;;;9.43;;
32780;SDS011;19136;47.032;15.502;2023-01-08T11:11:45;11.90;;;7.80;;
32780;SDS011;19136;47.032;15.502;2023-01-08T11:16:39;16.70;;;7.88;;
32780;SDS011;19136;47.032;15.502;2023-01-08T11:19:12;13.05;;;7.43;;
32780;SDS011;19136;47.032;15.502;2023-01-08T11:21:39;12.57;;;7.30;;
32780;SDS011;19136;47.032;15.502;2023-01-08T11:26:41;13.80;;;8.00;;
32780;SDS011;19136;47.032;15.502;2023-01-08T11:29:15;11.63;;;7.53;;
32780;SDS011;19136;47.032;15.502;2023-01-08T11:31:43;11.95;;;7.38;;
32780;SDS011;19136;47.032;15.502;2023-01-08T11:36:56;13.45;;;8.38;;
32780;SDS011;19136;47.032;15.502;2023-01-08T11:39:23;14.63;;;9.05;;
32780;SDS011;19136;47.032;15.502;2023-01-08T11:44:38;16.35;;;8.60;;
32780;SDS011;19136;47.032;15.502;2023-01-08T11:55:11;16.02;;;7.20;;
32780;SDS011;19136;47.032;15.502;2023-01-08T11:57:53;15.57;;;7.90;;
32780;SDS011;19136;47.032;15.502;2023-01-08T12:05:26;12.38;;;6.72;;
32780;SDS011;19136;47.032;15.502;2023-01-08T12:08:04;16.55;;;7.97;;
32780;SDS011;19136;47.032;15.502;2023-01-08T12:25:48;15.13;;;8.77;;
32780;SDS011;19136;47.032;15.502;2023-01-08T12:28:25;16.42;;;9.20;;
32780;SDS011;19136;47.032;15.502;2023-01-08T12:33:40;16.50;;;8.80;;
32780;SDS011;19136;47.032;15.502;2023-01-08T12:36:08;16.50;;;8.93;;
32780;SDS011;19136;47.032;15.502;2023-01-08T12:38:43;15.50;;;8.95;;
32780;SDS011;19136;47.032;15.502;2023-01-08T12:41:16;15.65;;;9.02;;
32780;SDS011;19136;47.032;15.502;2023-01-08T12:46:14;17.27;;;8.18;;
32780;SDS011;19136;47.032;15.502;2023-01-08T12:48:41;18.13;;;8.70;;
32780;SDS011;19136;47.032;15.502;2023-01-08T12:56:22;17.77;;;8.55;;
32780;SDS011;19136;47.032;15.502;2023-01-08T12:59:10;23.85;;;8.75;;
32780;SDS011;19136;47.032;15.502;2023-01-08T13:04:19;15.75;;;7.05;;
32780;SDS011;19136;47.032;15.502;2023-01-08T13:07:03;17.95;;;7.50;;
32780;SDS011;19136;47.032;15.502;2023-01-08T13:09:29;14.73;;;6.68;;
32780;SDS011;19136;47.032;15.502;2023-01-08T13:11:56;12.55;;;6.80;;
32780;SDS011;19136;47.032;15.502;2023-01-08T13:14:22;11.82;;;6.68;;
32780;SDS011;19136;47.032;15.502;2023-01-08T13:17:04;13.23;;;7.10;;
32780;SDS011;19136;47.032;15.502;2023-01-08T13:19:36;11.68;;;6.15;;
32780;SDS011;19136;47.032;15.502;2023-01-08T13:22:04;11.68;;;6.72;;
32780;SDS011;19136;47.032;15.502;2023-01-08T13:24:34;18.23;;;8.07;;
32780;SDS011;19136;47.032;15.502;2023-01-08T13:27:11;20.00;;;8.52;;
32780;SDS011;19136;47.032;15.502;2023-01-08T13:29:46;16.35;;;8.35;;
32780;SDS011;19136;47.032;15.502;2023-01-08T13:32:35;13.30;;;8.07;;
32780;SDS011;19136;47.032;15.502;2023-01-08T13:35:16;15.60;;;7.82;;
32780;SDS011;19136;47.032;15.502;2023-01-08T13:37:43;18.90;;;7.43;;
32780;SDS011;19136;47.032;15.502;2023-01-08T13:42:53;17.80;;;9.23;;
32780;SDS011;19136;47.032;15.502;2023-01-08T13:45:22;17.70;;;9.02;;
32780;SDS011;19136;47.032;15.502;2023-01-08T13:47:50;20.70;;;10.63;;
32780;SDS011;19136;47.032;15.502;2023-01-08T13:50:19;16.70;;;8.85;;
32780;SDS011;19136;47.032;15.502;2023-01-08T13:53:10;22.70;;;9.55;;
32780;SDS011;19136;47.032;15.502;2023-01-08T13:55:35;17.70;;;9.88;;
32780;SDS011;19136;47.032;15.502;2023-01-08T13:58:22;19.60;;;9.50;;
32780;SDS011;19136;47.032;15.502;2023-01-08T14:00:49;16.52;;;9.10;;
32780;SDS011;19136;47.032;15.502;2023-01-08T14:03:27;18.77;;;9.32;;
32780;SDS011;19136;47.032;15.502;2023-01-08T14:06:03;20.63;;;9.10;;
32780;SDS011;19136;47.032;15.502;2023-01-08T14:08:29;18.63;;;9.80;;
32780;SDS011;19136;47.032;15.502;2023-01-08T14:10:54;18.90;;;9.50;;
32780;SDS011;19136;47.032;15.502;2023-01-08T14:13:26;17.45;;;9.75;;
32780;SDS011;19136;47.032;15.502;2023-01-08T14:18:18;20.92;;;9.18;;
32780;SDS011;19136;47.032;15.502;2023-01-08T14:20:43;19.35;;;10.43;;
32780;SDS011;19136;47.032;15.502;2023-01-08T14:23:15;22.73;;;11.32;;
32780;SDS011;19136;47.032;15.502;2023-01-08T14:25:42;28.23;;;13.73;;
32780;SDS011;19136;47.032;15.502;2023-01-08T14:28:13;27.50;;;13.30;;
32780;SDS011;19136;47.032;15.502;2023-01-08T14:30:45;27.35;;;13.32;;
32780;SDS011;19136;47.032;15.502;2023-01-08T14:33:11;24.88;;;11.95;;
32780;SDS011;19136;47.032;15.502;2023-01-08T14:35:37;25.27;;;12.90;;
32780;SDS011;19136;47.032;15.502;2023-01-08T14:38:02;23.33;;;12.25;;
32780;SDS011;19136;47.032;15.502;2023-01-08T14:40:40;21.20;;;11.15;;
32780;SDS011;19136;47.032;15.502;2023-01-08T14:43:10;16.90;;;9.55;;
32780;SDS011;19136;47.032;15.502;2023-01-08T14:45:37;19.38;;;9.63;;
32780;SDS011;19136;47.032;15.502;2023-01-08T14:48:11;17.38;;;9.57;;
32780;SDS011;19136;47.032;15.502;2023-01-08T14:50:43;22.70;;;10.75;;
32780;SDS011;19136;47.032;15.502;2023-01-08T14:53:26;29.35;;;13.40;;
32780;SDS011;19136;47.032;15.502;2023-01-08T14:58:19;30.23;;;13.23;;
32780;SDS011;19136;47.032;15.502;2023-01-08T15:00:48;22.67;;;11.05;;
32780;SDS011;19136;47.032;15.502;2023-01-08T15:03:29;23.65;;;11.38;;
32780;SDS011;19136;47.032;15.502;2023-01-08T15:05:55;22.27;;;10.18;;
32780;SDS011;19136;47.032;15.502;2023-01-08T15:08:22;20.60;;;10.68;;
32780;SDS011;19136;47.032;15.502;2023-01-08T15:11:04;22.38;;;10.50;;
32780;SDS011;19136;47.032;15.502;2023-01-08T15:13:34;26.10;;;11.38;;
32780;SDS011;19136;47.032;15.502;2023-01-08T15:16:15;24.45;;;10.40;;
32780;SDS011;19136;47.032;15.502;2023-01-08T15:18:43;21.42;;;11.02;;
32780;SDS011;19136;47.032;15.502;2023-01-08T15:21:09;22.73;;;11.15;;
32780;SDS011;19136;47.032;15.502;2023-01-08T15:23:40;22.65;;;10.20;;
32780;SDS011;19136;47.032;15.502;2023-01-08T15:26:13;24.63;;;11.68;;
32780;SDS011;19136;47.032;15.502;2023-01-08T15:28:55;26.00;;;11.50;;
32780;SDS011;19136;47.032;15.502;2023-01-08T15:31:32;24.52;;;13.00;;
32780;SDS011;19136;47.032;15.502;2023-01-08T15:34:08;28.25;;;14.43;;
32780;SDS011;19136;47.032;15.502;2023-01-08T15:36:37;26.95;;;13.15;;
32780;SDS011;19136;47.032;15.502;2023-01-08T15:39:02;44.58;;;20.27;;
32780;SDS011;19136;47.032;15.502;2023-01-08T15:41:32;36.00;;;18.05;;
32780;SDS011;19136;47.032;15.502;2023-01-08T15:44:19;34.80;;;16.90;;
32780;SDS011;19136;47.032;15.502;2023-01-08T15:46:44;35.72;;;17.17;;
32780;SDS011;19136;47.032;15.502;2023-01-08T15:49:10;34.75;;;17.67;;
32780;SDS011;19136;47.032;15.502;2023-01-08T15:51:35;37.60;;;19.25;;